createdAt,value
2023-04-02T00:01:01.354Z,3.20
2023-04-02T00:03:43.888Z,2.95
2023-04-02T00:06:34.441Z,3.07
2023-04-02T00:09:23.476Z,2.08
2023-04-02T00:11:56.240Z,2.72
2023-04-02T00:14:35.124Z,1.15
2023-04-02T00:17:07.436Z,1.15
2023-04-02T00:19:51.805Z,1.93
2023-04-02T00:22:31.377Z,1.75
2023-04-02T00:25:12.606Z,3.53
2023-04-02T00:27:45.747Z,1.38
2023-04-02T00:30:18.253Z,1.75
2023-04-02T00:32:51.773Z,1.42
2023-04-02T00:35:28.544Z,2.85
2023-04-02T00:38:02.262Z,1.60
2023-04-02T00:40:34.666Z,3.10
2023-04-02T00:43:08.425Z,2.97
2023-04-02T00:45:41.551Z,3.30
2023-04-02T00:48:45.064Z,2.28
2023-04-02T00:51:26.238Z,1.77
2023-04-02T00:54:04.086Z,1.70
2023-04-02T00:56:48.658Z,1.98
2023-04-02T00:59:28.958Z,2.42
2023-04-02T01:02:26.617Z,1.52
2023-04-02T01:05:15.821Z,1.38
2023-04-02T01:07:58.830Z,0.80
2023-04-02T01:11:03.431Z,1.80
2023-04-02T01:13:41.929Z,1.02
2023-04-02T01:16:26.004Z,1.35
2023-04-02T01:19:21.184Z,0.98
2023-04-02T01:22:22.944Z,1.33
2023-04-02T01:24:58.474Z,1.20
2023-04-02T01:28:19.717Z,2.97
2023-04-02T01:30:56.066Z,1.42
2023-04-02T01:33:35.374Z,1.25
2023-04-02T01:36:26.423Z,1.67
2023-04-02T01:39:17.219Z,1.90
2023-04-02T01:41:59.403Z,1.63
2023-04-02T01:44:50.018Z,1.92
2023-04-02T01:47:27.424Z,1.70
2023-04-02T01:50:14.787Z,1.55
2023-04-02T01:52:51.752Z,1.05
2023-04-02T01:55:48.860Z,1.00
2023-04-02T01:58:28.076Z,1.30
2023-04-02T02:01:17.485Z,0.80
2023-04-02T02:03:51.064Z,2.88
2023-04-02T02:06:24.529Z,1.27
2023-04-02T02:09:04.343Z,2.25
2023-04-02T02:11:37.555Z,3.13
2023-04-02T02:14:16.929Z,2.07
2023-04-02T02:16:50.333Z,1.30
2023-04-02T02:19:45.798Z,0.95
2023-04-02T02:22:29.472Z,2.00
2023-04-02T02:25:11.306Z,1.80
2023-04-02T02:27:49.809Z,3.20
2023-04-02T02:30:38.290Z,2.45
2023-04-02T02:33:15.358Z,2.10
2023-04-02T02:35:57.505Z,1.48
2023-04-02T02:38:35.171Z,2.45
2023-04-02T02:41:27.046Z,1.98
2023-04-02T02:44:10.556Z,2.75
2023-04-02T02:46:50.480Z,1.00
2023-04-02T02:49:29.394Z,2.45
2023-04-02T02:52:13.112Z,2.55
2023-04-02T02:54:58.078Z,1.98
2023-04-02T02:57:38.965Z,2.15
2023-04-02T03:00:11.993Z,3.47
2023-04-02T03:02:46.534Z,2.00
2023-04-02T03:05:24.122Z,3.28
2023-04-02T03:08:02.008Z,4.35
2023-04-02T03:10:43.494Z,2.10
2023-04-02T03:13:23.802Z,1.90
2023-04-02T03:16:12.939Z,4.28
2023-04-02T03:18:58.582Z,3.85
2023-04-02T03:21:31.419Z,1.95
2023-04-02T03:24:18.976Z,2.58
2023-04-02T03:27:25.630Z,2.70
2023-04-02T03:30:06.735Z,2.42
2023-04-02T03:32:43.802Z,3.67
2023-04-02T03:35:26.559Z,2.28
2023-04-02T03:38:05.548Z,2.97
2023-04-02T03:40:48.329Z,2.53
2023-04-02T03:43:25.577Z,3.05
2023-04-02T03:46:34.268Z,2.97
2023-04-02T03:49:24.409Z,3.40
2023-04-02T03:52:20.232Z,1.83
2023-04-02T03:54:56.347Z,3.60
2023-04-02T03:57:36.984Z,2.97
2023-04-02T04:00:16.900Z,2.88
2023-04-02T04:02:59.240Z,4.03
2023-04-02T04:05:43.960Z,1.98
2023-04-02T04:08:26.963Z,3.40
2023-04-02T04:11:03.850Z,4.03
2023-04-02T04:13:47.128Z,2.80
2023-04-02T04:16:26.721Z,2.90
2023-04-02T04:19:21.997Z,2.15
2023-04-02T04:22:09.870Z,4.35
2023-04-02T04:24:45.670Z,5.68
2023-04-02T04:27:33.809Z,4.97
2023-04-02T04:30:15.015Z,4.60
2023-04-02T04:32:58.139Z,5.45
2023-04-02T04:35:37.232Z,3.17
2023-04-02T04:38:17.537Z,3.55
2023-04-02T04:41:05.099Z,3.00
2023-04-02T04:44:01.079Z,5.07
2023-04-02T04:46:42.553Z,3.97
2023-04-02T04:49:21.005Z,6.05
2023-04-02T04:52:22.521Z,4.95
2023-04-02T04:54:56.571Z,4.13
2023-04-02T04:57:35.395Z,4.68
2023-04-02T05:00:45.005Z,3.20
2023-04-02T05:03:33.554Z,4.18
2023-04-02T05:06:19.794Z,4.55
2023-04-02T05:08:56.512Z,3.25
2023-04-02T05:11:45.839Z,3.92
2023-04-02T05:14:34.072Z,5.22
2023-04-02T05:17:26.338Z,3.47
2023-04-02T05:20:38.502Z,3.67
2023-04-02T05:23:21.226Z,5.82
2023-04-02T05:26:12.168Z,3.65
2023-04-02T05:28:51.875Z,2.88
2023-04-02T05:31:44.200Z,4.10
2023-04-02T05:34:25.992Z,6.28
2023-04-02T05:37:00.460Z,5.10
2023-04-02T05:39:33.021Z,4.82
2023-04-02T05:42:15.408Z,3.58
2023-04-02T05:45:16.584Z,4.00
2023-04-02T05:47:52.317Z,5.85
2023-04-02T05:50:37.635Z,3.42
2023-04-02T05:53:30.691Z,2.95
2023-04-02T05:56:15.557Z,4.70
2023-04-02T05:58:56.028Z,5.45
2023-04-02T06:02:03.586Z,3.50
2023-04-02T06:04:50.326Z,4.72
2023-04-02T06:07:28.511Z,3.50
2023-04-02T06:10:10.300Z,3.10
2023-04-02T06:12:52.428Z,2.97
2023-04-02T06:15:26.010Z,4.13
2023-04-02T06:18:35.260Z,3.95
2023-04-02T06:21:12.728Z,3.45
2023-04-02T06:23:52.407Z,4.18
2023-04-02T06:26:33.884Z,3.97
2023-04-02T06:29:20.214Z,2.92
2023-04-02T06:32:01.469Z,2.75
2023-04-02T06:34:38.228Z,3.80
2023-04-02T06:37:35.846Z,3.63
2023-04-02T06:40:47.429Z,2.33
2023-04-02T06:43:45.939Z,2.10
2023-04-02T06:46:45.425Z,1.88
2023-04-02T06:49:25.970Z,2.83
2023-04-02T06:54:38.373Z,6.82
2023-04-02T06:57:14.737Z,3.42
2023-04-02T06:59:51.020Z,2.72
2023-04-02T07:02:37.088Z,4.53
2023-04-02T07:05:13.172Z,2.97
2023-04-02T07:07:50.970Z,4.68
2023-04-02T07:10:24.202Z,3.72
2023-04-02T07:15:30.933Z,3.15
2023-04-02T07:18:04.671Z,4.57
2023-04-02T07:20:37.924Z,4.40
2023-04-02T07:23:16.518Z,5.22
2023-04-02T07:25:57.121Z,17.00
2023-04-02T07:28:30.216Z,3.72
2023-04-02T07:31:02.908Z,3.10
2023-04-02T07:33:35.478Z,5.32
2023-04-02T07:36:08.181Z,12.15
2023-04-02T07:38:41.084Z,4.47
2023-04-02T07:41:19.954Z,4.10
2023-04-02T07:43:53.612Z,4.13
2023-04-02T07:48:59.779Z,3.80
2023-04-02T07:51:32.939Z,4.00
2023-04-02T07:54:05.511Z,10.50
2023-04-02T07:56:38.637Z,13.73
2023-04-02T07:59:11.417Z,8.65
2023-04-02T08:01:44.140Z,9.43
2023-04-02T08:04:19.817Z,16.10
2023-04-02T08:06:53.134Z,18.33
2023-04-02T08:11:58.270Z,12.88
2023-04-02T08:14:30.703Z,15.88
2023-04-02T08:17:03.078Z,30.75
2023-04-02T08:19:47.795Z,20.30
2023-04-02T08:22:27.732Z,17.50
2023-04-02T08:25:01.611Z,17.33
2023-04-02T08:27:35.413Z,19.58
2023-04-02T08:30:10.221Z,16.48
2023-04-02T08:32:43.190Z,27.75
2023-04-02T08:35:17.202Z,16.05
2023-04-02T08:37:49.709Z,21.90
2023-04-02T08:40:36.538Z,18.40
2023-04-02T08:43:15.785Z,21.50
2023-04-02T08:46:17.657Z,17.75
2023-04-02T08:48:58.409Z,19.30
2023-04-02T08:51:34.779Z,21.20
2023-04-02T08:54:38.071Z,19.73
2023-04-02T08:57:13.582Z,15.50
2023-04-02T08:59:47.212Z,17.00
2023-04-02T09:02:40.808Z,20.88
2023-04-02T09:05:34.710Z,15.40
2023-04-02T09:08:22.622Z,17.58
2023-04-02T09:11:19.215Z,14.18
2023-04-02T09:13:57.394Z,15.75
2023-04-02T09:16:49.729Z,15.02
2023-04-02T09:19:31.575Z,17.05
2023-04-02T09:22:07.809Z,21.42
2023-04-02T09:24:42.553Z,13.73
2023-04-02T09:27:24.974Z,15.13
2023-04-02T09:30:18.957Z,15.40
2023-04-02T09:32:54.281Z,14.82
2023-04-02T09:35:29.327Z,14.65
2023-04-02T09:38:07.786Z,16.63
2023-04-02T09:41:05.760Z,14.48
2023-04-02T09:43:39.213Z,15.75
2023-04-02T09:46:15.591Z,14.75
2023-04-02T09:48:58.523Z,16.40
2023-04-02T09:51:34.773Z,17.98
2023-04-02T09:54:14.314Z,13.38
2023-04-02T09:57:03.430Z,15.93
2023-04-02T09:59:36.163Z,16.30
2023-04-02T10:02:28.826Z,14.93
2023-04-02T10:05:04.841Z,18.27
2023-04-02T10:07:43.836Z,13.73
2023-04-02T10:10:41.916Z,16.23
2023-04-02T10:13:21.038Z,15.23
2023-04-02T10:15:59.470Z,9.32
2023-04-02T10:18:44.165Z,15.70
2023-04-02T10:21:25.294Z,13.50
2023-04-02T10:23:59.676Z,14.57
2023-04-02T10:26:32.016Z,12.48
2023-04-02T10:29:18.378Z,16.40
2023-04-02T10:32:03.066Z,10.38
2023-04-02T10:34:58.702Z,12.65
2023-04-02T10:37:47.293Z,10.88
2023-04-02T10:40:35.691Z,9.40
2023-04-02T10:43:27.495Z,9.50
2023-04-02T10:49:42.719Z,9.57
2023-04-02T10:52:26.852Z,10.23
2023-04-02T10:55:16.792Z,8.57
2023-04-02T10:57:52.124Z,11.73
2023-04-02T11:00:28.228Z,11.35
2023-04-02T11:03:09.465Z,10.07
2023-04-02T11:05:53.596Z,9.13
2023-04-02T11:08:41.697Z,9.05
2023-04-02T11:11:49.181Z,7.10
2023-04-02T11:14:28.933Z,7.82
2023-04-02T11:17:04.807Z,9.77
2023-04-02T11:19:37.838Z,10.90
2023-04-02T11:22:23.397Z,7.78
2023-04-02T11:24:57.533Z,7.20
2023-04-02T11:27:32.828Z,6.93
2023-04-02T11:30:24.651Z,7.15
2023-04-02T11:33:35.872Z,8.27
2023-04-02T11:36:46.635Z,6.50
2023-04-02T11:39:55.210Z,6.55
2023-04-02T11:42:33.548Z,6.75
2023-04-02T11:45:23.806Z,5.43
2023-04-02T11:48:02.556Z,9.63
2023-04-02T11:50:43.157Z,9.55
2023-04-02T11:53:21.694Z,6.97
2023-04-02T11:55:56.729Z,8.43
2023-04-02T11:59:02.419Z,6.38
2023-04-02T12:01:59.165Z,6.40
2023-04-02T12:04:56.668Z,4.60
2023-04-02T12:07:46.886Z,5.28
2023-04-02T12:10:28.416Z,6.97
2023-04-02T12:13:00.911Z,6.55
2023-04-02T12:15:46.522Z,7.43
2023-04-02T12:18:24.356Z,5.60
2023-04-02T12:20:57.578Z,7.68
2023-04-02T12:23:33.424Z,5.57
2023-04-02T12:26:23.086Z,4.20
2023-04-02T12:28:56.429Z,6.32
2023-04-02T12:34:02.498Z,4.75
2023-04-02T12:36:36.214Z,3.80
2023-04-02T12:39:17.420Z,3.83
2023-04-02T12:41:50.031Z,5.35
2023-04-02T12:44:28.605Z,5.05
2023-04-02T12:47:01.228Z,5.35
2023-04-02T12:49:39.608Z,4.03
2023-04-02T12:52:17.577Z,5.90
2023-04-02T12:54:53.245Z,3.80
2023-04-02T12:57:25.962Z,4.78
2023-04-02T13:00:22.512Z,4.35
2023-04-02T13:03:18.274Z,6.30
2023-04-02T13:05:53.358Z,3.92
2023-04-02T13:08:29.568Z,3.83
2023-04-02T13:11:03.991Z,5.13
2023-04-02T13:13:39.795Z,3.80
2023-04-02T13:16:15.173Z,3.10
2023-04-02T13:18:49.578Z,4.32
2023-04-02T13:21:29.943Z,3.67
2023-04-02T13:24:02.333Z,2.50
2023-04-02T13:26:34.769Z,2.97
2023-04-02T13:29:26.817Z,4.40
2023-04-02T13:32:08.063Z,4.10
2023-04-02T13:34:40.860Z,3.90
2023-04-02T13:37:13.396Z,4.03
2023-04-02T13:39:45.750Z,3.25
2023-04-02T13:42:19.436Z,2.42
2023-04-02T13:44:51.793Z,5.55
2023-04-02T13:47:24.834Z,3.97
2023-04-02T13:49:57.238Z,2.30
2023-04-02T13:52:29.861Z,4.33
2023-04-02T13:55:03.369Z,3.10
2023-04-02T14:00:08.915Z,3.55
2023-04-02T14:02:47.596Z,4.13
2023-04-02T14:05:57.219Z,3.05
2023-04-02T14:08:56.042Z,3.88
2023-04-02T14:11:52.522Z,2.45
2023-04-02T14:14:50.019Z,3.22
2023-04-02T14:17:38.408Z,3.08
2023-04-02T14:20:20.810Z,3.97
2023-04-02T14:23:05.738Z,2.27
2023-04-02T14:26:15.425Z,2.63
2023-04-02T14:28:50.771Z,3.38
2023-04-02T14:31:43.211Z,3.60
2023-04-02T14:34:43.192Z,3.47
2023-04-02T14:37:45.750Z,5.80
2023-04-02T14:40:37.230Z,3.30
2023-04-02T14:43:15.998Z,3.17
2023-04-02T14:45:51.759Z,2.70
2023-04-02T14:48:33.044Z,2.90
2023-04-02T14:51:14.836Z,2.53
2023-04-02T14:54:11.707Z,3.40
2023-04-02T14:56:57.245Z,2.92
2023-04-02T14:59:30.010Z,3.05
2023-04-02T15:02:41.553Z,4.30
2023-04-02T15:05:32.570Z,3.72
2023-04-02T15:08:24.702Z,2.95
2023-04-02T15:11:10.518Z,2.60
2023-04-02T15:13:50.022Z,4.07
2023-04-02T15:16:26.770Z,4.43
2023-04-02T15:19:01.294Z,3.72
2023-04-02T15:22:09.525Z,3.60
2023-04-02T15:25:16.751Z,3.42
2023-04-02T15:28:30.271Z,3.10
2023-04-02T15:31:10.120Z,2.42
2023-04-02T15:33:44.072Z,2.92
2023-04-02T15:36:35.527Z,4.57
2023-04-02T15:39:28.497Z,3.58
2023-04-02T15:42:25.674Z,2.55
2023-04-02T15:45:10.938Z,3.45
2023-04-02T15:47:52.578Z,5.22
2023-04-02T15:50:50.455Z,3.22
2023-04-02T15:53:43.593Z,2.78
2023-04-02T15:56:48.988Z,3.78
2023-04-02T15:59:59.562Z,4.45
2023-04-02T16:02:34.785Z,3.72
2023-04-02T16:05:27.353Z,2.50
2023-04-02T16:08:31.782Z,2.05
2023-04-02T16:11:13.304Z,4.13
2023-04-02T16:13:47.391Z,2.67
2023-04-02T16:16:26.909Z,2.08
2023-04-02T16:19:05.557Z,5.28
2023-04-02T16:21:58.933Z,4.00
2023-04-02T16:24:31.381Z,3.23
2023-04-02T16:27:15.044Z,2.38
2023-04-02T16:30:07.892Z,2.00
2023-04-02T16:32:55.687Z,3.13
2023-04-02T16:36:16.660Z,3.58
2023-04-02T16:39:32.633Z,6.72
2023-04-02T16:42:05.544Z,5.13
2023-04-02T16:45:04.482Z,4.70
2023-04-02T16:47:59.960Z,5.35
2023-04-02T16:50:57.126Z,7.30
2023-04-02T16:54:00.627Z,8.38
2023-04-02T16:56:52.710Z,14.02
2023-04-02T16:59:53.411Z,10.27
2023-04-02T17:02:35.132Z,6.35
2023-04-02T17:05:11.010Z,10.40
2023-04-02T17:08:15.513Z,22.92
2023-04-02T17:11:01.974Z,10.90
2023-04-02T17:14:06.176Z,10.23
2023-04-02T17:16:46.749Z,3.85
2023-04-02T17:19:20.914Z,6.25
2023-04-02T17:21:58.809Z,3.65
2023-04-02T17:24:39.022Z,6.40
2023-04-02T17:27:30.218Z,4.22
2023-04-02T17:30:13.816Z,6.72
2023-04-02T17:32:46.412Z,9.05
2023-04-02T17:35:32.298Z,6.88
2023-04-02T17:38:20.981Z,6.90
2023-04-02T17:41:22.634Z,4.50
2023-04-02T17:44:36.815Z,9.98
2023-04-02T17:50:19.646Z,4.28
2023-04-02T17:53:34.109Z,12.60
2023-04-02T17:56:09.516Z,8.48
2023-04-02T17:59:00.507Z,4.57
2023-04-02T18:01:36.784Z,7.78
2023-04-02T18:04:39.396Z,5.53
2023-04-02T18:07:34.945Z,7.78
2023-04-02T18:10:41.276Z,12.07
2023-04-02T18:13:46.356Z,4.85
2023-04-02T18:16:32.444Z,4.32
2023-04-02T18:19:17.242Z,4.50
2023-04-02T18:22:07.966Z,5.00
2023-04-02T18:25:02.375Z,6.90
2023-04-02T18:28:07.250Z,7.40
2023-04-02T18:30:43.898Z,4.78
2023-04-02T18:33:30.528Z,6.35
2023-04-02T18:36:23.672Z,4.20
2023-04-02T18:39:20.934Z,9.20
2023-04-02T18:42:02.555Z,7.43
2023-04-02T18:44:38.899Z,5.78
2023-04-02T18:47:22.318Z,11.40
2023-04-02T18:50:18.690Z,9.00
2023-04-02T18:52:51.157Z,6.50
2023-04-02T18:55:30.775Z,7.75
2023-04-02T18:58:15.031Z,7.35
2023-04-02T19:00:50.020Z,3.30
2023-04-02T19:03:36.757Z,6.15
2023-04-02T19:06:19.345Z,4.93
2023-04-02T19:08:58.856Z,10.32
2023-04-02T19:11:32.143Z,4.88
2023-04-02T19:14:13.053Z,4.63
2023-04-02T19:16:51.328Z,7.55
2023-04-02T19:19:27.213Z,5.20
2023-04-02T19:22:24.274Z,3.85
2023-04-02T19:25:36.721Z,3.08
2023-04-02T19:28:13.617Z,5.90
2023-04-02T19:31:05.733Z,6.28
2023-04-02T19:34:02.457Z,6.93
2023-04-02T19:37:09.781Z,5.68
2023-04-02T19:40:05.104Z,6.57
2023-04-02T19:42:46.815Z,7.03
2023-04-02T19:45:26.687Z,6.68
2023-04-02T19:48:03.733Z,9.20
2023-04-02T19:50:36.698Z,4.78
2023-04-02T19:53:09.495Z,6.13
2023-04-02T19:55:42.860Z,5.15
2023-04-02T19:58:36.142Z,6.53
2023-04-02T20:01:09.465Z,7.55
2023-04-02T20:03:42.448Z,9.02
2023-04-02T20:06:15.657Z,5.78
2023-04-02T20:08:48.076Z,3.90
2023-04-02T20:11:21.022Z,8.40
2023-04-02T20:13:54.536Z,11.05
2023-04-02T20:16:28.017Z,7.65
2023-04-02T20:19:00.839Z,10.52
2023-04-02T20:21:38.457Z,9.23
2023-04-02T20:24:11.462Z,6.95
2023-04-02T20:26:44.468Z,15.45
2023-04-02T20:29:17.025Z,5.03
2023-04-02T20:31:53.081Z,8.52
2023-04-02T20:34:26.105Z,5.97
2023-04-02T20:36:58.653Z,5.10
2023-04-02T20:39:31.108Z,6.37
2023-04-02T20:42:03.728Z,5.80
2023-04-02T20:44:36.387Z,11.25
2023-04-02T20:47:10.665Z,9.23
2023-04-02T20:49:43.346Z,7.53
2023-04-02T20:52:15.741Z,5.13
2023-04-02T20:54:48.089Z,7.67
2023-04-02T20:57:21.971Z,12.07
2023-04-02T20:59:54.663Z,7.32
2023-04-02T21:02:27.092Z,6.90
2023-04-02T21:04:59.370Z,10.60
2023-04-02T21:07:31.712Z,5.72
2023-04-02T21:10:05.272Z,6.10
2023-04-02T21:12:38.854Z,7.57
2023-04-02T21:15:13.701Z,7.43
2023-04-02T21:17:47.608Z,6.90
2023-04-02T21:20:21.221Z,9.50
2023-04-02T21:22:53.960Z,11.73
2023-04-02T21:25:26.415Z,8.18
2023-04-02T21:27:58.799Z,6.50
2023-04-02T21:30:33.160Z,3.90
2023-04-02T21:33:06.403Z,7.03
2023-04-02T21:38:11.565Z,4.93
2023-04-02T21:40:44.089Z,4.90
2023-04-02T21:43:17.944Z,7.53
2023-04-02T21:45:50.382Z,4.17
2023-04-02T21:48:23.067Z,6.15
2023-04-02T21:50:56.008Z,7.55
2023-04-02T21:53:28.666Z,8.90
2023-04-02T21:56:06.539Z,4.78
2023-04-02T21:58:39.059Z,6.70
2023-04-02T22:01:23.927Z,5.30
2023-04-02T22:04:02.010Z,5.47
2023-04-02T22:06:40.409Z,5.05
2023-04-02T22:09:16.480Z,5.18
2023-04-02T22:11:54.165Z,3.28
2023-04-02T22:14:28.614Z,6.30
2023-04-02T22:17:01.333Z,4.65
2023-04-02T22:19:33.957Z,7.82
2023-04-02T22:22:06.519Z,5.03
2023-04-02T22:24:39.503Z,3.45
2023-04-02T22:27:12.625Z,4.10
2023-04-02T22:29:46.805Z,8.20
2023-04-02T22:32:19.094Z,5.28
2023-04-02T22:34:51.622Z,7.53
2023-04-02T22:37:25.211Z,5.10
2023-04-02T22:39:57.675Z,6.18
2023-04-02T22:42:30.463Z,4.10
2023-04-02T22:45:05.265Z,4.88
2023-04-02T22:47:37.744Z,4.60
2023-04-02T22:50:10.474Z,4.68
2023-04-02T22:52:44.286Z,4.95
2023-04-02T22:55:17.076Z,5.43
2023-04-02T22:57:49.543Z,5.60
2023-04-02T23:00:23.312Z,5.35
2023-04-02T23:02:56.877Z,3.72
2023-04-02T23:05:29.306Z,4.20
2023-04-02T23:08:02.035Z,4.17
2023-04-02T23:10:34.547Z,5.28
2023-04-02T23:13:07.691Z,4.97
2023-04-02T23:15:39.996Z,5.72
2023-04-02T23:18:12.538Z,4.35
2023-04-02T23:20:45.045Z,3.78
2023-04-02T23:23:17.973Z,4.17
2023-04-02T23:25:50.352Z,4.78
2023-04-02T23:28:23.416Z,2.60
2023-04-02T23:30:57.468Z,4.82
2023-04-02T23:33:30.253Z,4.75
2023-04-02T23:36:28.739Z,4.53
2023-04-02T23:39:04.840Z,4.57
2023-04-02T23:41:40.136Z,3.28
2023-04-02T23:44:13.140Z,4.32
2023-04-02T23:49:21.562Z,4.32
2023-04-02T23:51:58.486Z,2.72
2023-04-02T23:54:31.328Z,3.70
2023-04-02T23:57:05.387Z,5.57
2023-04-02T23:59:39.293Z,4.25
